Gladstone, Virginia
Current Conditions -  °F | °C
As of 9:54 PM on Tuesday 21 Oct 2014 (Local Time) from KLYH Reporting Station
Overcast Overcast  
Wind Chill: 52°   Ceiling: 10000
Heat Index: 52°   Visibility: 10mi
Dew Point: 41°   Wind: 5mph
Humidity: 66%   Direction: 270°W
Pressure: 29.95"   Gusts: NA
Location:  37.55°N, 78.85°W
Report Text: KLYH 220154Z 27004KT 10SM OVC100 11/05 A2995 RMK AO2 SLP139 T01110050
Loading
Personal Weather Stations






























Interactive Weather Map
Tropical Storm Tracking
New forecast layout! Learn more

10-Day Weather Forecast

Advertisements
Track Severe Weather on mobile